This is the latest recevied weather packets stored in our database for station/object DB7GV-8. If no packets are shown the sender has not sent any weather packets the latest 10 day(s).
| Time | Temp. | Humidity | Pressure | Rain* | Wind** | Luminosity | Snow |
|---|---|---|---|---|---|---|---|
| 1777584548 | 8.33° C | 41% | 1024.6 hPa | - | - | - | - |
| 1777583643 | 8.89° C | 39% | 1024.5 hPa | - | - | - | - |
| 1777582737 | 10° C | 36% | 1024.5 hPa | - | - | - | - |
| 1777581832 | 10.56° C | 33% | 1024.4 hPa | - | - | - | - |
| 1777580927 | 10.56° C | 33% | 1024.3 hPa | - | - | - | - |
| 1777580021 | 10.56° C | 38% | 1024.4 hPa | - | - | - | - |
| 1777579116 | 10.56° C | 38% | 1024.3 hPa | - | - | - | - |
| 1777577305 | 11.11° C | 38% | 1024 hPa | - | - | - | - |
| 1777576400 | 11.67° C | 35% | 1024 hPa | - | - | - | - |
| 1777575494 | 12.22° C | 33% | 1023.7 hPa | - | - | - | - |
| 1777574589 | 12.78° C | 32% | 1023.6 hPa | - | - | - | - |
| 1777573683 | 13.89° C | 30% | 1023.4 hPa | - | - | - | - |
| 1777572778 | 15° C | 23% | 1023.2 hPa | - | - | - | - |
| 1777571873 | 15.56° C | 22% | 1022.9 hPa | - | - | - | - |
| 1777570967 | 16.11° C | 22% | 1022.8 hPa | - | - | - | - |
| 1777570062 | 16.67° C | 22% | 1022.7 hPa | - | - | - | - |
| 1777569157 | 17.78° C | 21% | 1022.6 hPa | - | - | - | - |
| 1777568250 | 18.89° C | 20% | 1022.7 hPa | - | - | - | - |
| 1777567345 | 19.44° C | 19% | 1022.6 hPa | - | - | - | - |
| 1777566440 | 20° C | 19% | 1022.5 hPa | - | - | - | - |
| 1777565535 | 20.56° C | 19% | 1022.3 hPa | - | - | - | - |
| 1777564629 | 20.56° C | 19% | 1022.2 hPa | - | - | - | - |
| 1777563724 | 21.11° C | 19% | 1022.1 hPa | - | - | - | - |
| 1777562819 | 21.67° C | 19% | 1022.2 hPa | - | - | - | - |
| 1777561913 | 21.11° C | 19% | 1022.2 hPa | - | - | - | - |
* Rain since midnight (hover to see other rain measurements)
** Current wind speed in m/s (hover to see current wind gust speed)